sensor_id;sensor_type;location;lat;lon;timestamp;temperature;humidity
17437;DHT22;8836;52.272;5.134;2023-05-20T00:01:19;12.20;99.90
17437;DHT22;8836;52.272;5.134;2023-05-20T00:03:46;12.20;99.90
17437;DHT22;8836;52.272;5.134;2023-05-20T00:06:13;12.90;99.90
17437;DHT22;8836;52.272;5.134;2023-05-20T00:08:40;14.30;99.90
17437;DHT22;8836;52.272;5.134;2023-05-20T00:11:08;12.00;99.90
17437;DHT22;8836;52.272;5.134;2023-05-20T00:13:37;12.00;99.90
17437;DHT22;8836;52.272;5.134;2023-05-20T00:16:04;12.00;99.90
17437;DHT22;8836;52.272;5.134;2023-05-20T00:18:32;11.90;99.90
17437;DHT22;8836;52.272;5.134;2023-05-20T00:20:59;12.00;99.90
17437;DHT22;8836;52.272;5.134;2023-05-20T00:23:25;13.50;99.90
17437;DHT22;8836;52.272;5.134;2023-05-20T00:25:52;11.90;99.90
17437;DHT22;8836;52.272;5.134;2023-05-20T00:28:21;11.90;99.90
17437;DHT22;8836;52.272;5.134;2023-05-20T00:30:48;11.90;99.90
17437;DHT22;8836;52.272;5.134;2023-05-20T00:33:15;13.40;99.90
17437;DHT22;8836;52.272;5.134;2023-05-20T00:35:42;11.80;99.90
17437;DHT22;8836;52.272;5.134;2023-05-20T00:38:09;12.80;99.90
17437;DHT22;8836;52.272;5.134;2023-05-20T00:40:36;15.50;99.90
17437;DHT22;8836;52.272;5.134;2023-05-20T00:43:03;11.70;99.90
17437;DHT22;8836;52.272;5.134;2023-05-20T00:45:31;12.50;99.90
17437;DHT22;8836;52.272;5.134;2023-05-20T00:47:58;11.60;99.90
17437;DHT22;8836;52.272;5.134;2023-05-20T00:50:28;11.60;99.90
17437;DHT22;8836;52.272;5.134;2023-05-20T00:52:55;11.50;99.90
17437;DHT22;8836;52.272;5.134;2023-05-20T00:55:23;11.60;99.90
17437;DHT22;8836;52.272;5.134;2023-05-20T00:57:51;11.60;99.90
17437;DHT22;8836;52.272;5.134;2023-05-20T01:00:19;11.60;99.90
17437;DHT22;8836;52.272;5.134;2023-05-20T01:02:48;11.50;99.90
17437;DHT22;8836;52.272;5.134;2023-05-20T01:05:15;13.00;99.90
17437;DHT22;8836;52.272;5.134;2023-05-20T01:07:42;11.50;99.90
17437;DHT22;8836;52.272;5.134;2023-05-20T01:10:10;11.50;99.90
17437;DHT22;8836;52.272;5.134;2023-05-20T01:12:40;11.50;99.90
17437;DHT22;8836;52.272;5.134;2023-05-20T01:15:10;11.50;99.90
17437;DHT22;8836;52.272;5.134;2023-05-20T01:17:40;11.50;99.90
17437;DHT22;8836;52.272;5.134;2023-05-20T01:20:13;11.50;99.90
17437;DHT22;8836;52.272;5.134;2023-05-20T01:22:47;11.40;99.90
17437;DHT22;8836;52.272;5.134;2023-05-20T01:25:15;14.20;99.90
17437;DHT22;8836;52.272;5.134;2023-05-20T01:27:42;11.40;99.90
17437;DHT22;8836;52.272;5.134;2023-05-20T01:30:10;11.40;99.90
17437;DHT22;8836;52.272;5.134;2023-05-20T01:32:39;11.40;99.90
17437;DHT22;8836;52.272;5.134;2023-05-20T01:35:09;11.30;99.90
17437;DHT22;8836;52.272;5.134;2023-05-20T01:37:38;11.20;99.90
17437;DHT22;8836;52.272;5.134;2023-05-20T01:40:10;11.10;99.90
17437;DHT22;8836;52.272;5.134;2023-05-20T01:42:40;11.10;99.90
17437;DHT22;8836;52.272;5.134;2023-05-20T01:45:10;13.20;99.90
17437;DHT22;8836;52.272;5.134;2023-05-20T01:47:37;12.40;99.90
17437;DHT22;8836;52.272;5.134;2023-05-20T01:50:06;11.10;99.90
17437;DHT22;8836;52.272;5.134;2023-05-20T01:52:34;11.00;99.90
17437;DHT22;8836;52.272;5.134;2023-05-20T01:55:01;11.00;99.90
17437;DHT22;8836;52.272;5.134;2023-05-20T01:57:29;10.90;99.90
17437;DHT22;8836;52.272;5.134;2023-05-20T01:59:56;10.90;99.90
17437;DHT22;8836;52.272;5.134;2023-05-20T02:02:23;10.90;99.90
17437;DHT22;8836;52.272;5.134;2023-05-20T02:04:52;10.90;99.90
17437;DHT22;8836;52.272;5.134;2023-05-20T02:07:20;13.90;99.90
17437;DHT22;8836;52.272;5.134;2023-05-20T02:09:47;10.90;99.90
17437;DHT22;8836;52.272;5.134;2023-05-20T02:12:14;12.30;99.90
17437;DHT22;8836;52.272;5.134;2023-05-20T02:14:43;10.90;99.90
17437;DHT22;8836;52.272;5.134;2023-05-20T02:19:40;10.70;99.90
17437;DHT22;8836;52.272;5.134;2023-05-20T02:22:08;10.80;99.90
17437;DHT22;8836;52.272;5.134;2023-05-20T02:24:35;12.20;99.90
17437;DHT22;8836;52.272;5.134;2023-05-20T02:27:02;10.70;99.90
17437;DHT22;8836;52.272;5.134;2023-05-20T02:29:31;10.70;99.90
17437;DHT22;8836;52.272;5.134;2023-05-20T02:31:59;13.90;99.90
17437;DHT22;8836;52.272;5.134;2023-05-20T02:34:27;10.70;99.90
17437;DHT22;8836;52.272;5.134;2023-05-20T02:36:54;10.60;99.90
17437;DHT22;8836;52.272;5.134;2023-05-20T02:39:21;10.60;99.90
17437;DHT22;8836;52.272;5.134;2023-05-20T02:41:48;10.60;99.90
17437;DHT22;8836;52.272;5.134;2023-05-20T02:44:15;7.60;99.90
17437;DHT22;8836;52.272;5.134;2023-05-20T02:46:43;10.60;99.90
17437;DHT22;8836;52.272;5.134;2023-05-20T02:49:11;10.60;99.90
17437;DHT22;8836;52.272;5.134;2023-05-20T02:51:39;10.60;99.90
17437;DHT22;8836;52.272;5.134;2023-05-20T02:54:06;10.60;99.90
17437;DHT22;8836;52.272;5.134;2023-05-20T02:56:33;10.60;99.90
17437;DHT22;8836;52.272;5.134;2023-05-20T02:59:00;14.50;99.90
17437;DHT22;8836;52.272;5.134;2023-05-20T03:01:28;10.60;99.90
17437;DHT22;8836;52.272;5.134;2023-05-20T03:03:55;10.60;99.90
17437;DHT22;8836;52.272;5.134;2023-05-20T03:06:23;10.60;99.90
17437;DHT22;8836;52.272;5.134;2023-05-20T03:08:50;10.70;99.90
17437;DHT22;8836;52.272;5.134;2023-05-20T03:11:17;14.50;99.90
17437;DHT22;8836;52.272;5.134;2023-05-20T03:13:44;11.50;99.90
17437;DHT22;8836;52.272;5.134;2023-05-20T03:16:11;11.60;99.90
17437;DHT22;8836;52.272;5.134;2023-05-20T03:18:38;10.70;99.90
17437;DHT22;8836;52.272;5.134;2023-05-20T03:21:06;10.70;99.90
17437;DHT22;8836;52.272;5.134;2023-05-20T03:23:34;10.80;99.90
17437;DHT22;8836;52.272;5.134;2023-05-20T03:26:02;10.70;99.90
17437;DHT22;8836;52.272;5.134;2023-05-20T03:28:29;10.80;99.90
17437;DHT22;8836;52.272;5.134;2023-05-20T03:30:55;10.70;99.90
17437;DHT22;8836;52.272;5.134;2023-05-20T03:33:23;10.80;99.90
17437;DHT22;8836;52.272;5.134;2023-05-20T03:35:50;10.80;99.90
17437;DHT22;8836;52.272;5.134;2023-05-20T03:38:17;11.90;99.90
17437;DHT22;8836;52.272;5.134;2023-05-20T03:40:46;10.90;99.90
17437;DHT22;8836;52.272;5.134;2023-05-20T03:43:13;13.60;99.90
17437;DHT22;8836;52.272;5.134;2023-05-20T03:45:40;10.90;99.90
17437;DHT22;8836;52.272;5.134;2023-05-20T03:48:07;11.00;99.90
17437;DHT22;8836;52.272;5.134;2023-05-20T03:50:34;10.90;99.90
17437;DHT22;8836;52.272;5.134;2023-05-20T03:53:01;11.00;99.90
17437;DHT22;8836;52.272;5.134;2023-05-20T03:55:28;11.00;99.90
17437;DHT22;8836;52.272;5.134;2023-05-20T03:57:56;11.00;99.90
17437;DHT22;8836;52.272;5.134;2023-05-20T04:00:23;13.10;99.90
17437;DHT22;8836;52.272;5.134;2023-05-20T04:02:50;11.00;99.90
17437;DHT22;8836;52.272;5.134;2023-05-20T04:05:18;11.10;99.90
17437;DHT22;8836;52.272;5.134;2023-05-20T04:07:45;11.70;99.90
17437;DHT22;8836;52.272;5.134;2023-05-20T04:10:11;11.20;99.90
17437;DHT22;8836;52.272;5.134;2023-05-20T04:15:09;11.20;99.90
17437;DHT22;8836;52.272;5.134;2023-05-20T04:17:37;11.30;99.90
17437;DHT22;8836;52.272;5.134;2023-05-20T04:20:06;11.30;99.90
17437;DHT22;8836;52.272;5.134;2023-05-20T04:22:34;11.40;99.90
17437;DHT22;8836;52.272;5.134;2023-05-20T04:25:01;11.30;99.90
17437;DHT22;8836;52.272;5.134;2023-05-20T04:27:31;11.50;99.90
17437;DHT22;8836;52.272;5.134;2023-05-20T04:29:59;11.50;99.90
17437;DHT22;8836;52.272;5.134;2023-05-20T04:32:28;11.50;99.90
17437;DHT22;8836;52.272;5.134;2023-05-20T04:34:55;11.50;99.90
17437;DHT22;8836;52.272;5.134;2023-05-20T04:37:22;15.00;99.90
17437;DHT22;8836;52.272;5.134;2023-05-20T04:39:49;11.60;99.90
17437;DHT22;8836;52.272;5.134;2023-05-20T04:42:17;14.20;99.90
17437;DHT22;8836;52.272;5.134;2023-05-20T04:44:45;11.70;99.90
17437;DHT22;8836;52.272;5.134;2023-05-20T04:47:13;14.80;99.90
17437;DHT22;8836;52.272;5.134;2023-05-20T04:49:41;11.70;99.90
17437;DHT22;8836;52.272;5.134;2023-05-20T04:52:10;11.80;99.90
17437;DHT22;8836;52.272;5.134;2023-05-20T04:54:37;11.90;99.90
17437;DHT22;8836;52.272;5.134;2023-05-20T04:57:04;14.20;99.90
17437;DHT22;8836;52.272;5.134;2023-05-20T04:59:31;12.00;99.90
17437;DHT22;8836;52.272;5.134;2023-05-20T05:01:58;12.10;99.90
17437;DHT22;8836;52.272;5.134;2023-05-20T05:04:25;12.30;99.90
17437;DHT22;8836;52.272;5.134;2023-05-20T05:06:54;12.40;99.90
17437;DHT22;8836;52.272;5.134;2023-05-20T05:09:21;12.40;99.90
17437;DHT22;8836;52.272;5.134;2023-05-20T05:11:48;13.50;99.90
17437;DHT22;8836;52.272;5.134;2023-05-20T05:14:15;12.20;99.90
17437;DHT22;8836;52.272;5.134;2023-05-20T05:16:42;14.50;99.90
17437;DHT22;8836;52.272;5.134;2023-05-20T05:19:10;12.20;99.90
17437;DHT22;8836;52.272;5.134;2023-05-20T05:21:37;12.20;99.90
17437;DHT22;8836;52.272;5.134;2023-05-20T05:24:06;12.20;99.90
17437;DHT22;8836;52.272;5.134;2023-05-20T05:26:33;12.20;99.90
17437;DHT22;8836;52.272;5.134;2023-05-20T05:29:00;12.30;99.90
17437;DHT22;8836;52.272;5.134;2023-05-20T05:31:27;12.30;99.90
17437;DHT22;8836;52.272;5.134;2023-05-20T05:33:54;12.40;99.90
17437;DHT22;8836;52.272;5.134;2023-05-20T05:36:23;12.40;99.90
17437;DHT22;8836;52.272;5.134;2023-05-20T05:38:50;12.50;99.90
17437;DHT22;8836;52.272;5.134;2023-05-20T05:41:19;12.50;99.90
17437;DHT22;8836;52.272;5.134;2023-05-20T05:43:46;12.50;99.90
17437;DHT22;8836;52.272;5.134;2023-05-20T05:46:13;12.60;99.90
17437;DHT22;8836;52.272;5.134;2023-05-20T05:48:40;12.70;99.90
17437;DHT22;8836;52.272;5.134;2023-05-20T05:53:34;12.80;99.90
17437;DHT22;8836;52.272;5.134;2023-05-20T05:56:01;12.80;99.90
17437;DHT22;8836;52.272;5.134;2023-05-20T05:58:30;13.00;99.90
17437;DHT22;8836;52.272;5.134;2023-05-20T06:00:57;13.00;99.90
17437;DHT22;8836;52.272;5.134;2023-05-20T06:03:24;14.60;99.90
17437;DHT22;8836;52.272;5.134;2023-05-20T06:05:51;13.20;99.90
17437;DHT22;8836;52.272;5.134;2023-05-20T06:08:18;14.80;99.90
17437;DHT22;8836;52.272;5.134;2023-05-20T06:10:47;13.20;99.90
17437;DHT22;8836;52.272;5.134;2023-05-20T06:13:14;13.40;99.90
17437;DHT22;8836;52.272;5.134;2023-05-20T06:15:43;13.40;99.90
17437;DHT22;8836;52.272;5.134;2023-05-20T06:18:10;13.50;99.90
17437;DHT22;8836;52.272;5.134;2023-05-20T06:20:37;13.60;99.90
17437;DHT22;8836;52.272;5.134;2023-05-20T06:23:05;13.60;99.90
17437;DHT22;8836;52.272;5.134;2023-05-20T06:25:32;13.80;99.90
17437;DHT22;8836;52.272;5.134;2023-05-20T06:27:59;13.70;99.90
17437;DHT22;8836;52.272;5.134;2023-05-20T06:30:26;13.90;99.90
17437;DHT22;8836;52.272;5.134;2023-05-20T06:32:54;14.00;99.90
17437;DHT22;8836;52.272;5.134;2023-05-20T06:35:21;13.90;99.90
17437;DHT22;8836;52.272;5.134;2023-05-20T06:37:48;14.00;99.90
17437;DHT22;8836;52.272;5.134;2023-05-20T06:40:15;14.10;99.90
17437;DHT22;8836;52.272;5.134;2023-05-20T06:42:43;14.20;99.90
17437;DHT22;8836;52.272;5.134;2023-05-20T06:45:10;14.30;99.90
17437;DHT22;8836;52.272;5.134;2023-05-20T06:47:38;14.30;99.90
17437;DHT22;8836;52.272;5.134;2023-05-20T06:50:07;14.50;99.90
17437;DHT22;8836;52.272;5.134;2023-05-20T06:52:35;14.50;99.90
17437;DHT22;8836;52.272;5.134;2023-05-20T06:55:03;14.70;99.90
17437;DHT22;8836;52.272;5.134;2023-05-20T06:57:31;14.70;99.90
17437;DHT22;8836;52.272;5.134;2023-05-20T06:59:58;14.80;99.90
17437;DHT22;8836;52.272;5.134;2023-05-20T07:02:25;17.50;99.90
17437;DHT22;8836;52.272;5.134;2023-05-20T07:04:52;14.90;99.90
17437;DHT22;8836;52.272;5.134;2023-05-20T07:07:20;14.90;99.90
17437;DHT22;8836;52.272;5.134;2023-05-20T07:09:47;15.30;99.90
17437;DHT22;8836;52.272;5.134;2023-05-20T07:12:14;15.30;99.90
17437;DHT22;8836;52.272;5.134;2023-05-20T07:14:41;15.30;99.90
17437;DHT22;8836;52.272;5.134;2023-05-20T07:17:09;15.40;99.90
17437;DHT22;8836;52.272;5.134;2023-05-20T07:19:37;15.50;99.90
17437;DHT22;8836;52.272;5.134;2023-05-20T07:22:04;15.50;99.90
17437;DHT22;8836;52.272;5.134;2023-05-20T07:24:32;14.90;99.90
17437;DHT22;8836;52.272;5.134;2023-05-20T07:26:59;16.00;99.90
17437;DHT22;8836;52.272;5.134;2023-05-20T07:29:26;16.10;99.90
17437;DHT22;8836;52.272;5.134;2023-05-20T07:31:53;19.20;99.90
17437;DHT22;8836;52.272;5.134;2023-05-20T07:34:20;15.80;99.90
17437;DHT22;8836;52.272;5.134;2023-05-20T07:36:48;16.10;99.90
17437;DHT22;8836;52.272;5.134;2023-05-20T07:39:16;16.30;99.90
17437;DHT22;8836;52.272;5.134;2023-05-20T07:41:44;16.40;99.90
17437;DHT22;8836;52.272;5.134;2023-05-20T07:44:11;16.40;99.90
17437;DHT22;8836;52.272;5.134;2023-05-20T07:46:38;16.50;99.90
17437;DHT22;8836;52.272;5.134;2023-05-20T07:49:06;16.50;99.90
17437;DHT22;8836;52.272;5.134;2023-05-20T07:51:33;16.40;99.90
17437;DHT22;8836;52.272;5.134;2023-05-20T07:54:01;16.30;99.90
17437;DHT22;8836;52.272;5.134;2023-05-20T07:56:28;16.20;99.90
17437;DHT22;8836;52.272;5.134;2023-05-20T07:58:58;16.50;99.90
17437;DHT22;8836;52.272;5.134;2023-05-20T08:01:28;16.50;99.90
17437;DHT22;8836;52.272;5.134;2023-05-20T08:03:55;16.80;99.90
17437;DHT22;8836;52.272;5.134;2023-05-20T08:06:22;16.70;99.90
17437;DHT22;8836;52.272;5.134;2023-05-20T08:08:49;16.90;99.90
17437;DHT22;8836;52.272;5.134;2023-05-20T08:11:18;17.00;99.90
17437;DHT22;8836;52.272;5.134;2023-05-20T08:13:46;17.00;99.90
17437;DHT22;8836;52.272;5.134;2023-05-20T08:16:14;15.10;99.90
17437;DHT22;8836;52.272;5.134;2023-05-20T08:18:41;17.30;99.90
17437;DHT22;8836;52.272;5.134;2023-05-20T08:21:08;17.20;99.90
17437;DHT22;8836;52.272;5.134;2023-05-20T08:23:35;17.20;99.90
17437;DHT22;8836;52.272;5.134;2023-05-20T08:26:03;17.50;99.90
17437;DHT22;8836;52.272;5.134;2023-05-20T08:28:30;17.20;99.90
17437;DHT22;8836;52.272;5.134;2023-05-20T08:30:59;17.50;99.90
17437;DHT22;8836;52.272;5.134;2023-05-20T08:33:28;17.60;99.90
17437;DHT22;8836;52.272;5.134;2023-05-20T08:35:55;17.70;99.90
17437;DHT22;8836;52.272;5.134;2023-05-20T08:38:22;17.90;99.90
17437;DHT22;8836;52.272;5.134;2023-05-20T08:40:51;18.00;99.90
17437;DHT22;8836;52.272;5.134;2023-05-20T08:43:19;18.00;99.90
17437;DHT22;8836;52.272;5.134;2023-05-20T08:45:46;17.90;99.90
17437;DHT22;8836;52.272;5.134;2023-05-20T08:48:15;18.60;99.90
17437;DHT22;70275;52.198;5.422;2023-05-20T08:50:45;18.20;99.90
17437;DHT22;70275;52.198;5.422;2023-05-20T08:53:16;18.30;99.90
17437;DHT22;70275;52.198;5.422;2023-05-20T08:55:46;18.60;99.90
17437;DHT22;70275;52.198;5.422;2023-05-20T08:58:20;18.80;99.90
17437;DHT22;70275;52.198;5.422;2023-05-20T09:00:47;19.00;99.90
17437;DHT22;70275;52.198;5.422;2023-05-20T09:03:15;19.20;99.90
17437;DHT22;70275;52.198;5.422;2023-05-20T09:05:46;19.00;99.90
17437;DHT22;70275;52.198;5.422;2023-05-20T09:08:13;18.80;99.40
17437;DHT22;70275;52.198;5.422;2023-05-20T09:10:40;19.20;99.90
17437;DHT22;70275;52.198;5.422;2023-05-20T09:13:10;19.30;99.90
17437;DHT22;70275;52.198;5.422;2023-05-20T09:15:37;19.40;99.20
17437;DHT22;70275;52.198;5.422;2023-05-20T09:18:06;19.40;99.90
17437;DHT22;70275;52.198;5.422;2023-05-20T09:20:35;19.30;99.20
17437;DHT22;70275;52.198;5.422;2023-05-20T09:23:07;19.20;97.30
17437;DHT22;70275;52.198;5.422;2023-05-20T09:25:36;19.60;97.80
17437;DHT22;70275;52.198;5.422;2023-05-20T09:28:03;19.80;96.80
17437;DHT22;70275;52.198;5.422;2023-05-20T09:30:31;19.80;96.00
17437;DHT22;70275;52.198;5.422;2023-05-20T09:33:00;19.90;94.40
17437;DHT22;70275;52.198;5.422;2023-05-20T09:35:33;19.90;94.90
17437;DHT22;70275;52.198;5.422;2023-05-20T09:38:05;20.10;94.40
17437;DHT22;70275;52.198;5.422;2023-05-20T09:40:33;20.40;95.00
17437;DHT22;70275;52.198;5.422;2023-05-20T09:43:03;20.40;94.80
17437;DHT22;70275;52.198;5.422;2023-05-20T09:45:32;20.00;94.80
17437;DHT22;70275;52.198;5.422;2023-05-20T09:48:01;19.90;95.50
17437;DHT22;70275;52.198;5.422;2023-05-20T09:50:28;19.80;95.30
17437;DHT22;70275;52.198;5.422;2023-05-20T09:53:01;19.30;95.40
17437;DHT22;70275;52.198;5.422;2023-05-20T09:55:31;19.20;95.30
17437;DHT22;70275;52.198;5.422;2023-05-20T09:58:01;19.60;94.70
17437;DHT22;70275;52.198;5.422;2023-05-20T10:00:29;19.30;94.80
17437;DHT22;70275;52.198;5.422;2023-05-20T10:02:56;19.60;95.70
17437;DHT22;70275;52.198;5.422;2023-05-20T10:05:26;19.90;94.90
17437;DHT22;70275;52.198;5.422;2023-05-20T10:08:15;20.20;94.70
17437;DHT22;70275;52.198;5.422;2023-05-20T10:10:57;20.60;94.20
17437;DHT22;70275;52.198;5.422;2023-05-20T10:13:49;20.20;94.00
17437;DHT22;70275;52.198;5.422;2023-05-20T10:16:36;21.30;95.00
17437;DHT22;70275;52.198;5.422;2023-05-20T10:19:26;20.00;94.00
17437;DHT22;70275;52.198;5.422;2023-05-20T10:21:56;20.20;94.40
17437;DHT22;70275;52.198;5.422;2023-05-20T10:24:31;20.10;94.40
17437;DHT22;70275;52.198;5.422;2023-05-20T10:27:01;20.20;94.20
17437;DHT22;70275;52.198;5.422;2023-05-20T10:29:41;20.20;93.60
17437;DHT22;70275;52.198;5.422;2023-05-20T10:32:08;20.10;92.40
17437;DHT22;70275;52.198;5.422;2023-05-20T10:34:45;20.50;92.90
17437;DHT22;70275;52.198;5.422;2023-05-20T10:37:22;20.10;92.70
17437;DHT22;70275;52.198;5.422;2023-05-20T10:39:50;20.60;93.20
17437;DHT22;70275;52.198;5.422;2023-05-20T10:42:28;20.30;92.70
17437;DHT22;70275;52.198;5.422;2023-05-20T10:44:55;20.20;92.70
17437;DHT22;70275;52.198;5.422;2023-05-20T10:47:22;20.10;92.50
17437;DHT22;70275;52.198;5.422;2023-05-20T10:49:49;20.30;92.70
17437;DHT22;70275;52.198;5.422;2023-05-20T10:52:17;20.50;93.30
17437;DHT22;70275;52.198;5.422;2023-05-20T10:54:46;20.50;92.40
17437;DHT22;70275;52.198;5.422;2023-05-20T10:57:20;20.40;93.40
17437;DHT22;70275;52.198;5.422;2023-05-20T10:59:50;20.70;93.10
17437;DHT22;70275;52.198;5.422;2023-05-20T11:02:18;20.60;92.40
17437;DHT22;70275;52.198;5.422;2023-05-20T11:04:51;20.90;92.30
17437;DHT22;70275;52.198;5.422;2023-05-20T11:07:24;21.10;92.70
17437;DHT22;70275;52.198;5.422;2023-05-20T11:09:52;21.30;92.20
17437;DHT22;70275;52.198;5.422;2023-05-20T11:12:20;21.60;92.50
17437;DHT22;70275;52.198;5.422;2023-05-20T11:14:49;21.20;92.80
17437;DHT22;70275;52.198;5.422;2023-05-20T11:17:18;21.50;94.00
17437;DHT22;70275;52.198;5.422;2023-05-20T11:19:45;21.30;92.80
17437;DHT22;70275;52.198;5.422;2023-05-20T11:22:13;21.70;92.70
17437;DHT22;70275;52.198;5.422;2023-05-20T11:24:40;21.20;91.90
17437;DHT22;70275;52.198;5.422;2023-05-20T11:27:08;22.10;92.80
17437;DHT22;70275;52.198;5.422;2023-05-20T11:29:35;22.20;92.70
17437;DHT22;70275;52.198;5.422;2023-05-20T11:32:04;21.00;92.50
17437;DHT22;70275;52.198;5.422;2023-05-20T11:34:33;21.10;92.40
17437;DHT22;70275;52.198;5.422;2023-05-20T11:37:01;20.80;92.30
17437;DHT22;70275;52.198;5.422;2023-05-20T11:39:29;20.50;92.80
17437;DHT22;70275;52.198;5.422;2023-05-20T11:41:57;20.50;92.60
17437;DHT22;70275;52.198;5.422;2023-05-20T11:44:24;20.50;92.60
17437;DHT22;70275;52.198;5.422;2023-05-20T11:46:58;20.90;92.60
17437;DHT22;70275;52.198;5.422;2023-05-20T11:49:28;21.20;92.30
17437;DHT22;70275;52.198;5.422;2023-05-20T11:51:55;20.70;92.80
17437;DHT22;70275;52.198;5.422;2023-05-20T11:54:23;20.70;92.80
17437;DHT22;70275;52.198;5.422;2023-05-20T11:56:53;20.70;92.60
17437;DHT22;70275;52.198;5.422;2023-05-20T11:59:23;21.20;92.90
17437;DHT22;70275;52.198;5.422;2023-05-20T12:01:50;22.30;92.30
17437;DHT22;70275;52.198;5.422;2023-05-20T12:04:17;24.50;92.80
17437;DHT22;70275;52.198;5.422;2023-05-20T12:06:45;23.10;91.80
17437;DHT22;70275;52.198;5.422;2023-05-20T12:09:12;22.40;91.00
17437;DHT22;70275;52.198;5.422;2023-05-20T12:11:39;22.30;91.20
17437;DHT22;70275;52.198;5.422;2023-05-20T12:14:07;22.50;91.10
17437;DHT22;70275;52.198;5.422;2023-05-20T12:16:35;22.30;91.40
17437;DHT22;70275;52.198;5.422;2023-05-20T12:19:03;22.10;91.70
17437;DHT22;70275;52.198;5.422;2023-05-20T12:21:30;22.30;92.30
17437;DHT22;70275;52.198;5.422;2023-05-20T12:23:59;21.60;91.30
17437;DHT22;70275;52.198;5.422;2023-05-20T12:26:27;21.40;92.20
17437;DHT22;70275;52.198;5.422;2023-05-20T12:28:55;20.70;91.70
17437;DHT22;70275;52.198;5.422;2023-05-20T12:31:23;20.80;92.70
17437;DHT22;70275;52.198;5.422;2023-05-20T12:33:50;20.80;92.90
17437;DHT22;70275;52.198;5.422;2023-05-20T12:36:17;20.70;92.90
17437;DHT22;70275;52.198;5.422;2023-05-20T12:38:45;22.30;93.30
17437;DHT22;70275;52.198;5.422;2023-05-20T12:41:13;21.10;92.80
17437;DHT22;70275;52.198;5.422;2023-05-20T12:43:40;21.90;91.80
17437;DHT22;70275;52.198;5.422;2023-05-20T12:46:07;22.70;91.70
17437;DHT22;70275;52.198;5.422;2023-05-20T12:48:34;23.20;90.30
17437;DHT22;70275;52.198;5.422;2023-05-20T12:51:01;23.20;90.00
17437;DHT22;70275;52.198;5.422;2023-05-20T12:53:28;22.70;90.10
17437;DHT22;70275;52.198;5.422;2023-05-20T12:55:55;22.40;90.80
17437;DHT22;70275;52.198;5.422;2023-05-20T12:58:24;22.90;90.20
17437;DHT22;70275;52.198;5.422;2023-05-20T13:00:51;22.90;91.00
17437;DHT22;70275;52.198;5.422;2023-05-20T13:05:45;22.30;90.50
17437;DHT22;70275;52.198;5.422;2023-05-20T13:08:12;21.90;91.30
17437;DHT22;70275;52.198;5.422;2023-05-20T13:10:39;22.20;91.70
17437;DHT22;70275;52.198;5.422;2023-05-20T13:13:06;22.40;91.30
17437;DHT22;70275;52.198;5.422;2023-05-20T13:15:34;22.60;91.10
17437;DHT22;70275;52.198;5.422;2023-05-20T13:18:02;22.20;90.50
17437;DHT22;70275;52.198;5.422;2023-05-20T13:20:31;22.30;91.00
17437;DHT22;70275;52.198;5.422;2023-05-20T13:22:58;22.30;90.90
17437;DHT22;70275;52.198;5.422;2023-05-20T13:25:24;22.10;90.60
17437;DHT22;70275;52.198;5.422;2023-05-20T13:27:52;21.90;90.90
17437;DHT22;70275;52.198;5.422;2023-05-20T13:30:19;21.80;91.00
17437;DHT22;70275;52.198;5.422;2023-05-20T13:32:47;22.00;91.20
17437;DHT22;70275;52.198;5.422;2023-05-20T13:35:14;22.10;91.20
17437;DHT22;70275;52.198;5.422;2023-05-20T13:37:42;22.00;91.40
17437;DHT22;70275;52.198;5.422;2023-05-20T13:40:10;22.30;90.70
17437;DHT22;70275;52.198;5.422;2023-05-20T13:42:38;22.70;90.80
17437;DHT22;70275;52.198;5.422;2023-05-20T13:45:06;22.80;91.30
17437;DHT22;70275;52.198;5.422;2023-05-20T13:47:33;23.40;90.40
17437;DHT22;70275;52.198;5.422;2023-05-20T13:50:02;22.80;90.30
17437;DHT22;70275;52.198;5.422;2023-05-20T13:52:30;22.80;90.80
17437;DHT22;70275;52.198;5.422;2023-05-20T13:54:57;22.60;90.70
17437;DHT22;70275;52.198;5.422;2023-05-20T13:57:24;22.30;91.30
17437;DHT22;70275;52.198;5.422;2023-05-20T13:59:51;22.60;91.30
17437;DHT22;70275;52.198;5.422;2023-05-20T14:02:18;22.80;90.80
17437;DHT22;70275;52.198;5.422;2023-05-20T14:04:45;22.70;90.90
17437;DHT22;70275;52.198;5.422;2023-05-20T14:07:13;22.80;91.20
17437;DHT22;70275;52.198;5.422;2023-05-20T14:09:40;22.20;90.70
17437;DHT22;70275;52.198;5.422;2023-05-20T14:12:07;21.90;90.90
17437;DHT22;70275;52.198;5.422;2023-05-20T14:14:34;21.80;91.30
17437;DHT22;70275;52.198;5.422;2023-05-20T14:17:01;21.90;91.30
17437;DHT22;70275;52.198;5.422;2023-05-20T14:19:28;22.00;90.80
17437;DHT22;70275;52.198;5.422;2023-05-20T14:21:55;22.40;90.70
17437;DHT22;70275;52.198;5.422;2023-05-20T14:24:24;22.40;90.20
17437;DHT22;70275;52.198;5.422;2023-05-20T14:26:52;22.80;90.50
17437;DHT22;70275;52.198;5.422;2023-05-20T14:29:19;23.60;90.30
17437;DHT22;70275;52.198;5.422;2023-05-20T14:31:46;23.70;90.20
17437;DHT22;70275;52.198;5.422;2023-05-20T14:34:13;23.10;89.70
17437;DHT22;70275;52.198;5.422;2023-05-20T14:36:40;22.70;90.60
17437;DHT22;70275;52.198;5.422;2023-05-20T14:39:08;22.50;90.50
17437;DHT22;70275;52.198;5.422;2023-05-20T14:41:36;21.90;90.20
17437;DHT22;70275;52.198;5.422;2023-05-20T14:44:03;22.20;90.70
17437;DHT22;70275;52.198;5.422;2023-05-20T14:46:31;22.40;90.30
17437;DHT22;70275;52.198;5.422;2023-05-20T14:48:59;21.40;90.90
17437;DHT22;70275;52.198;5.422;2023-05-20T14:51:26;21.60;91.70
17437;DHT22;70275;52.198;5.422;2023-05-20T14:53:53;21.80;91.40
17437;DHT22;70275;52.198;5.422;2023-05-20T14:56:20;21.80;91.20
17437;DHT22;70275;52.198;5.422;2023-05-20T14:58:49;21.20;91.40
17437;DHT22;70275;52.198;5.422;2023-05-20T15:01:16;21.10;91.90
17437;DHT22;70275;52.198;5.422;2023-05-20T15:03:43;20.90;91.60
17437;DHT22;70275;52.198;5.422;2023-05-20T15:06:09;21.10;91.80
17437;DHT22;70275;52.198;5.422;2023-05-20T15:08:36;21.20;91.60
17437;DHT22;70275;52.198;5.422;2023-05-20T15:11:03;21.30;91.80
17437;DHT22;70275;52.198;5.422;2023-05-20T15:13:30;21.50;92.50
17437;DHT22;70275;52.198;5.422;2023-05-20T15:15:59;21.30;91.70
17437;DHT22;70275;52.198;5.422;2023-05-20T15:18:26;21.80;92.30
17437;DHT22;70275;52.198;5.422;2023-05-20T15:20:53;21.70;91.70
17437;DHT22;70275;52.198;5.422;2023-05-20T15:23:20;21.60;91.80
17437;DHT22;70275;52.198;5.422;2023-05-20T15:25:47;21.60;91.80
17437;DHT22;70275;52.198;5.422;2023-05-20T15:28:14;21.10;92.50
17437;DHT22;70275;52.198;5.422;2023-05-20T15:30:44;20.30;93.50
17437;DHT22;70275;52.198;5.422;2023-05-20T15:33:12;20.20;94.00
17437;DHT22;70275;52.198;5.422;2023-05-20T15:35:39;19.90;94.10
17437;DHT22;70275;52.198;5.422;2023-05-20T15:38:06;20.30;94.00
17437;DHT22;70275;52.198;5.422;2023-05-20T15:40:33;20.20;93.90
17437;DHT22;70275;52.198;5.422;2023-05-20T15:43:00;19.90;93.30
17437;DHT22;70275;52.198;5.422;2023-05-20T15:45:28;20.20;93.80
17437;DHT22;70275;52.198;5.422;2023-05-20T15:47:56;20.30;93.00
17437;DHT22;70275;52.198;5.422;2023-05-20T15:50:25;20.50;93.20
17437;DHT22;70275;52.198;5.422;2023-05-20T15:52:53;20.70;93.40
17437;DHT22;70275;52.198;5.422;2023-05-20T15:55:20;20.40;93.30